Time;durP1;ratioP1;P1;durP2;ratioP2;P2;SDS_P1;SDS_P2;PMS_P1;PMS_P2;Temp;Humidity;BMP_temperature;BMP_pressure;BME280_temperature;BME280_humidity;BME280_pressure;Samples;Min_cycle;Max_cycle;Signal;HPM_P1;HPM_P2
2022/12/15 00:39:11;;;;;;;1.20;0.90;;;18.90;56.00;;;;;;6118984;29;20056;-58
2022/12/15 00:42:13;;;;;;;0.90;0.52;;;;;;;;;;6133896;29;20496;-58
2022/12/15 00:45:14;;;;;;;0.88;0.70;;;;;;;;;;6134906;29;20048;-58
2022/12/15 00:48:16;;;;;;;0.63;0.50;;;;;;;;;;6134162;29;20063;-58
2022/12/15 00:51:17;;;;;;;;;;;18.80;53.00;;;;;;6134166;29;20099;-58
2022/12/15 01:20:21;;;;;;;1.25;1.13;;;;;;;;;;6138730;29;20456;-57
2022/12/15 01:23:22;;;;;;;1.08;0.85;;;;;;;;;;6136261;29;20122;-57
2022/12/15 01:26:24;;;;;;;1.50;1.10;;;18.90;55.70;;;;;;6140291;29;20040;-58
2022/12/15 01:29:26;;;;;;;1.15;1.00;;;;;;;;;;6143562;29;20048;-57
2022/12/15 01:32:28;;;;;;;1.35;1.10;;;;;;;;;;6140212;29;20051;-58
2022/12/15 01:35:30;;;;;;;1.55;1.00;;;;;;;;;;6136342;29;20039;-57
2022/12/15 01:38:31;;;;;;;1.58;1.30;;;;;;;;;;6134606;29;20075;-58
2022/12/15 01:41:33;;;;;;;1.27;1.17;;;18.90;54.30;;;;;;6132286;29;20055;-57
2022/12/15 01:44:36;;;;;;;1.17;0.98;;;18.80;54.80;;;;;;6132143;29;20087;-58
2022/12/15 01:47:38;;;;;;;1.58;1.40;;;;;;;;;;6132588;29;20078;-58
2022/12/15 01:50:44;;;;;;;1.80;1.40;;;18.90;53.30;;;;;;6132266;29;20047;-58
2022/12/15 01:53:53;;;;;;;1.77;1.30;;;18.80;54.80;;;;;;6115492;29;20107;-58
2022/12/15 01:56:59;;;;;;;1.63;1.40;;;18.90;55.30;;;;;;6132781;29;20044;-58
2022/12/15 02:00:04;;;;;;;1.52;1.33;;;18.90;54.80;;;;;;6116281;29;20403;-58
2022/12/15 02:03:07;;;;;;;1.98;1.70;;;;;;;;;;6115772;29;20047;-58
2022/12/15 02:06:10;;;;;;;1.63;1.38;;;18.80;53.20;;;;;;6132296;29;20040;-58
2022/12/15 02:09:12;;;;;;;1.95;1.55;;;;;;;;;;6132058;29;20048;-58
2022/12/15 02:12:24;;;;;;;1.40;1.30;;;18.80;54.80;;;;;;6132282;29;20035;-58
2022/12/15 02:15:33;;;;;;;1.83;1.60;;;18.90;54.80;;;;;;6132471;29;20087;-57
2022/12/15 02:18:41;;;;;;;1.48;1.35;;;18.80;54.80;;;;;;6132147;29;20047;-57
2022/12/15 02:21:48;;;;;;;2.05;1.50;;;18.80;54.80;;;;;;6131929;29;20404;-57
2022/12/15 02:25:11;;;;;;;2.10;1.70;;;18.80;54.60;;;;;;6131891;29;20036;-58
2022/12/15 02:28:19;;;;;;;1.50;1.20;;;18.90;55.10;;;;;;6132298;29;20130;-58
2022/12/15 02:34:44;;;;;;;1.42;1.10;;;18.70;54.10;;;;;;6132294;29;20047;-57
2022/12/15 02:37:46;;;;;;;1.88;1.58;;;18.90;54.80;;;;;;6115757;29;20040;-58
2022/12/15 02:40:57;;;;;;;1.90;1.55;;;18.80;54.70;;;;;;6132443;29;20523;-57
2022/12/15 02:43:59;;;;;;;1.73;1.60;;;;;;;;;;6131855;29;20499;-58
2022/12/15 02:47:20;;;;;;;1.42;1.30;;;18.90;54.30;;;;;;6132145;29;20047;-58
2022/12/15 02:50:41;;;;;;;2.20;1.83;;;18.80;54.40;;;;;;6117739;29;20076;-58
2022/12/15 02:54:01;;;;;;;2.15;1.67;;;18.80;54.70;;;;;;6132241;29;20044;-58
2022/12/15 02:57:11;;;;;;;1.67;1.40;;;18.90;54.50;;;;;;6132469;29;20044;-57
2022/12/15 03:00:14;;;;;;;2.00;1.50;;;18.90;54.60;;;;;;6131496;29;20044;-57
2022/12/15 03:03:19;;;;;;;1.70;1.60;;;19.00;54.90;;;;;;6131600;29;20084;-58
2022/12/15 03:06:21;;;;;;;1.77;1.45;;;;;;;;;;6131996;29;20130;-57
2022/12/15 03:09:23;;;;;;;2.05;1.85;;;;;;;;;;6131812;29;20048;-58
2022/12/15 03:12:24;;;;;;;2.40;2.20;;;;;;;;;;6114368;29;20059;-57
2022/12/15 03:15:26;;;;;;;2.13;1.77;;;;;;;;;;6131805;29;20055;-58
2022/12/15 03:18:36;;;;;;;2.05;1.83;;;18.80;54.50;;;;;;6131114;29;20048;-58
2022/12/15 03:21:38;;;;;;;2.45;2.25;;;;;;;;;;6131782;29;20048;-57
2022/12/15 03:24:40;;;;;;;2.03;1.83;;;;;;;;;;6131775;29;20040;-58
2022/12/15 03:27:43;;;;;;;2.10;1.90;;;;;;;;;;6131932;29;20040;-58
2022/12/15 03:30:45;;;;;;;1.90;1.70;;;;;;;;;;6130944;29;20408;-58
2022/12/15 03:33:52;;;;;;;2.45;1.85;;;18.70;53.70;;;;;;6131954;29;20067;-58
2022/12/15 03:36:54;;;;;;;2.05;1.73;;;;;;;;;;6135505;29;20051;-58
2022/12/15 03:39:56;;;;;;;2.10;1.88;;;18.80;54.30;;;;;;6134789;29;20071;-58
2022/12/15 03:42:58;;;;;;;1.92;1.65;;;;;;;;;;6117981;29;20072;-57
2022/12/15 03:45:59;;;;;;;2.03;1.70;;;;;;;;;;6134712;29;20035;-57
2022/12/15 03:49:02;;;;;;;1.83;1.60;;;19.00;53.60;;;;;;6134649;29;20082;-57
2022/12/15 03:52:04;;;;;;;2.30;1.98;;;;;;;;;;6136040;29;20063;-58
2022/12/15 03:55:06;;;;;;;2.20;2.00;;;;;;;;;;6135871;29;20502;-58
2022/12/15 03:58:08;;;;;;;1.90;1.70;;;;;;;;;;6135859;29;20047;-58
2022/12/15 04:01:11;;;;;;;2.33;1.70;;;18.90;54.10;;;;;;6135906;29;20095;-58
2022/12/15 04:04:13;;;;;;;1.75;1.58;;;18.70;53.10;;;;;;6135852;29;20040;-58
2022/12/15 04:07:15;;;;;;;2.22;1.98;;;;;;;;;;6135862;29;20048;-58
2022/12/15 04:10:17;;;;;;;2.00;1.80;;;;;;;;;;6136284;29;20043;-58
2022/12/15 04:13:19;;;;;;;1.88;1.63;;;;;;;;;;6136773;29;20051;-58
2022/12/15 04:16:21;;;;;;;1.92;1.58;;;;;;;;;;6132889;29;20103;-58
2022/12/15 04:22:40;;;;;;;3.00;1.80;;;18.70;52.30;;;;;;6139199;29;20075;-59
2022/12/15 05:34:07;;;;;;;1.23;1.10;;;;;;;;;;6145353;29;20048;-59
2022/12/15 05:37:09;;;;;;;0.95;0.85;;;;;;;;;;6140961;29;20044;-59
2022/12/15 05:40:11;;;;;;;1.60;1.05;;;18.70;49.80;;;;;;6141692;29;20072;-59
2022/12/15 05:43:13;;;;;;;1.60;1.00;;;;;;;;;;6139904;29;20055;-58
2022/12/15 05:46:15;;;;;;;1.30;1.20;;;;;;;;;;6141370;29;20044;-58
2022/12/15 05:49:17;;;;;;;1.20;1.10;;;18.60;49.10;;;;;;6140373;29;20052;-59
2022/12/15 05:52:19;;;;;;;1.50;1.20;;;;;;;;;;6139327;29;20044;-58
2022/12/15 05:55:21;;;;;;;1.10;1.00;;;18.70;48.80;;;;;;6138840;29;20039;-59
2022/12/15 05:58:23;;;;;;;1.52;1.25;;;;;;;;;;6137589;29;20579;-59
2022/12/15 06:01:25;;;;;;;1.67;1.27;;;;;;;;;;6138636;29;20412;-58
2022/12/15 06:04:27;;;;;;;1.33;1.00;;;;;;;;;;6123810;29;20055;-59
2022/12/15 06:07:29;;;;;;;1.58;1.20;;;;;;;;;;6138788;29;20047;-59
2022/12/15 06:10:31;;;;;;;1.33;1.08;;;18.70;47.50;;;;;;6139410;29;20040;-59
2022/12/15 06:13:33;;;;;;;1.40;1.05;;;18.70;48.60;;;;;;6138081;29;20055;-59
2022/12/15 06:16:36;;;;;;;1.50;1.15;;;;;;;;;;6138503;29;20052;-59
2022/12/15 06:19:51;;;;;;;1.60;1.05;;;;;;;;;;6138278;29;20436;-59
2022/12/15 06:22:53;;;;;;;1.20;1.10;;;;;;;;;;6138731;29;20068;-59
2022/12/15 06:25:55;;;;;;;1.30;1.00;;;18.70;48.70;;;;;;6138479;29;20048;-59
2022/12/15 06:29:01;;;;;;;1.27;1.13;;;18.70;48.60;;;;;;6121601;29;20043;-59
2022/12/15 06:32:03;;;;;;;1.30;1.10;;;;;;;;;;6121852;29;20048;-59
2022/12/15 06:35:05;;;;;;;1.50;1.27;;;;;;;;;;6136306;29;20059;-59
2022/12/15 06:38:07;;;;;;;1.52;1.27;;;;;;;;;;6137097;29;20365;-59
2022/12/15 06:41:11;;;;;;;1.40;1.23;;;18.80;47.60;;;;;;6135426;29;20051;-59
2022/12/15 06:44:15;;;;;;;1.38;1.20;;;18.70;47.20;;;;;;6103009;29;20036;-59
2022/12/15 06:47:17;;;;;;;1.38;1.17;;;;;;;;;;6136452;29;20062;-59
2022/12/15 06:50:18;;;;;;;1.30;1.13;;;;;;;;;;6137024;29;20040;-59
2022/12/15 06:53:22;;;;;;;1.50;1.10;;;18.60;47.20;;;;;;6134803;29;20103;-59
2022/12/15 06:56:25;;;;;;;1.25;1.15;;;18.80;47.30;;;;;;6119441;29;20054;-59
2022/12/15 06:59:35;;;;;;;1.75;1.25;;;;;;;;;;6106514;29;20067;-60
2022/12/15 07:02:37;;;;;;;1.55;1.13;;;;;;;;;;6136579;29;20052;-58
2022/12/15 07:05:39;;;;;;;1.20;0.98;;;;;;;;;;6135099;29;20130;-58
2022/12/15 07:08:41;;;;;;;1.00;0.90;;;18.70;46.40;;;;;;6133233;29;20496;-59
2022/12/15 07:11:45;;;;;;;2.08;1.10;;;18.70;45.60;;;;;;6144929;29;20051;-59
2022/12/15 07:14:48;;;;;;;1.23;0.90;;;;;;;;;;6152602;29;20075;-62
2022/12/15 07:17:55;;;;;;;1.63;1.42;;;;;;;;;;6148081;29;20131;-59
2022/12/15 07:27:57;;;;;;;1.30;1.20;;;19.20;45.00;;;;;;6971509;23;20036;-59
2022/12/15 07:31:01;;;;;;;1.35;1.00;;;18.90;43.90;;;;;;6154997;28;20043;-60
2022/12/15 07:34:04;;;;;;;1.50;1.13;;;;;;;;;;6143211;29;20436;-59
2022/12/15 07:37:06;;;;;;;1.33;1.10;;;;;;;;;;6150029;29;20103;-61
2022/12/15 07:40:08;;;;;;;2.05;1.25;;;;;;;;;;6584991;23;20024;-60
2022/12/15 07:43:10;;;;;;;3.67;1.50;;;19.20;45.10;;;;;;6145064;28;20059;-61
2022/12/15 07:49:50;;;;;;;1.50;1.30;;;;;;;;;;6825286;23;20050;31
2022/12/15 07:52:52;;;;;;;1.33;1.10;;;;;;;;;;6041710;29;20110;-59
2022/12/15 07:55:55;;;;;;;1.25;1.00;;;19.20;45.40;;;;;;6043495;29;20049;-57
2022/12/15 07:59:10;;;;;;;1.40;0.85;;;19.40;45.40;;;;;;6049367;29;20109;-57
2022/12/15 08:02:11;;;;;;;1.27;0.95;;;;;;;;;;6053851;29;20049;-58
2022/12/15 08:05:14;;;;;;;1.50;1.15;;;;;;;;;;6027533;29;20253;-58
2022/12/15 08:08:17;;;;;;;1.83;1.10;;;;;;;;;;6049267;29;20414;-58
2022/12/15 08:11:20;;;;;;;1.17;0.85;;;19.50;45.50;;;;;;6041133;29;20053;-56
2022/12/15 08:14:23;;;;;;;1.00;0.90;;;19.60;45.50;;;;;;6033419;29;20054;-57
2022/12/15 08:17:27;;;;;;;1.20;1.10;;;;;;;;;;6048794;29;20049;-57
2022/12/15 08:20:29;;;;;;;1.90;1.23;;;;;;;;;;6047673;29;20494;-57
2022/12/15 08:23:32;;;;;;;1.05;0.90;;;19.80;45.60;;;;;;6042363;29;20049;-57
2022/12/15 08:26:35;;;;;;;1.33;0.98;;;;;;;;;;6027903;29;20090;-56
2022/12/15 08:29:37;;;;;;;1.50;1.20;;;19.60;44.20;;;;;;6049913;29;20072;-54
2022/12/15 08:39:50;;;;;;;1.10;0.90;;;19.90;42.50;;;;;;6584130;23;20044;-58
2022/12/15 08:46:03;;;;;;;1.88;1.20;;;20.00;45.10;;;;;;6161987;23;20048;-58
2022/12/15 08:49:05;;;;;;;1.48;1.38;;;;;;;;;;6150764;29;20071;-55
2022/12/15 08:52:06;;;;;;;1.60;1.30;;;;;;;;;;6145835;28;20068;-56
2022/12/15 08:55:10;;;;;;;1.92;1.20;;;20.10;44.70;;;;;;6138414;29;20036;-57
2022/12/15 08:58:12;;;;;;;1.02;0.82;;;;;;;;;;6142399;28;20047;-58
2022/12/15 09:01:16;;;;;;;1.50;1.10;;;20.10;44.60;;;;;;6289194;23;20055;-57
2022/12/15 09:04:24;;;;;;;1.30;0.93;;;;;;;;;;6129811;29;20060;-58
2022/12/15 09:07:26;;;;;;;1.20;0.80;;;;;;;;;;6138260;29;20075;-59
2022/12/15 09:10:28;;;;;;;1.08;0.90;;;;;;;;;;6223426;23;20035;-57
2022/12/15 09:21:48;;;;;;;2.25;0.90;;;20.20;43.60;;;;;;6146960;29;20052;-60
2022/12/15 09:24:50;;;;;;;1.02;0.75;;;;;;;;;;6138961;29;20051;-58
2022/12/15 09:27:52;;;;;;;1.17;1.00;;;;;;;;;;6145995;28;20044;-57
2022/12/15 09:31:02;;;;;;;3.53;0.82;;;20.40;39.50;;;;;;6145904;29;20059;-59
2022/12/15 09:34:04;;;;;;;1.23;0.90;;;;;;;;;;6148063;28;20047;-59
2022/12/15 09:37:06;;;;;;;2.10;0.82;;;20.30;42.80;;;;;;6142041;29;20050;-59
2022/12/15 09:40:10;;;;;;;0.93;0.80;;;20.40;43.30;;;;;;6138113;29;20040;-59
2022/12/15 09:43:18;;;;;;;0.90;0.70;;;20.40;43.40;;;;;;6135356;29;20043;-58
2022/12/15 09:46:47;;;;;;;1.05;0.65;;;20.50;43.20;;;;;;6137552;29;20048;-58
2022/12/15 09:49:54;;;;;;;0.82;0.82;;;20.50;42.90;;;;;;6136617;29;20044;-57
2022/12/15 09:52:57;;;;;;;0.93;0.70;;;20.40;43.00;;;;;;6149235;28;20032;-58
2022/12/15 09:56:04;;;;;;;1.13;0.80;;;20.70;43.10;;;;;;6156907;28;20039;-58
2022/12/15 09:59:22;;;;;;;1.02;0.60;;;20.50;42.90;;;;;;6235450;23;20047;-59
2022/12/15 10:02:46;;;;;;;0.93;0.77;;;20.50;43.10;;;;;;6496781;23;20103;-59
2022/12/15 10:06:06;;;;;;;0.85;0.60;;;20.50;43.40;;;;;;6144571;29;20406;-58
2022/12/15 10:09:29;;;;;;;2.40;0.73;;;20.40;43.30;;;;;;6151939;28;20039;-59
2022/12/15 10:12:35;;;;;;;0.80;0.70;;;20.70;43.40;;;;;;7030199;23;20055;-56
2022/12/15 10:15:44;;;;;;;0.88;0.70;;;20.60;42.20;;;;;;6154054;28;20039;-56
2022/12/15 10:18:55;;;;;;;0.80;0.70;;;20.70;42.40;;;;;;6302362;23;20051;-58
2022/12/15 10:22:03;;;;;;;1.08;0.80;;;20.60;40.50;;;;;;6150642;28;20138;-58
2022/12/15 10:25:15;;;;;;;0.85;0.80;;;20.70;42.90;;;;;;6150756;29;20043;-57
2022/12/15 10:28:32;;;;;;;1.10;0.80;;;20.70;42.70;;;;;;6146130;29;20043;-58
2022/12/15 10:31:41;;;;;;;1.02;0.75;;;20.60;42.50;;;;;;6152702;28;20039;-59
2022/12/15 10:34:45;;;;;;;1.00;0.60;;;20.70;43.30;;;;;;6183030;23;20022;-59
2022/12/15 10:37:47;;;;;;;1.13;0.70;;;;;;;;;;6154187;28;20038;-59
2022/12/15 10:40:55;;;;;;;0.80;0.70;;;20.70;42.80;;;;;;6154478;28;20056;-58
2022/12/15 10:43:56;;;;;;;1.13;0.60;;;;;;;;;;6152970;28;20072;-58
2022/12/15 10:46:59;;;;;;;0.90;0.65;;;;;;;;;;6318562;23;20019;-58
2022/12/15 10:50:16;;;;;;;0.93;0.70;;;20.60;43.00;;;;;;6143991;28;20040;-57
2022/12/15 10:53:43;;;;;;;0.80;0.60;;;20.70;42.90;;;;;;6149220;28;20040;-57
2022/12/15 10:56:50;;;;;;;0.80;0.60;;;20.70;43.10;;;;;;6145976;28;20051;-57
2022/12/15 10:59:51;;;;;;;0.80;0.60;;;;;;;;;;6151846;28;20042;-58
2022/12/15 11:02:53;;;;;;;0.70;0.40;;;;;;;;;;6148098;28;20047;-57
2022/12/15 11:05:56;;;;;;;1.15;0.80;;;20.60;43.20;;;;;;6145859;29;20040;-57
2022/12/15 11:09:08;;;;;;;2.65;0.80;;;20.70;43.40;;;;;;6131056;29;20044;-59
2022/12/15 11:15:45;;;;;;;2.05;0.65;;;20.80;43.20;;;;;;6141201;29;20055;-58
2022/12/15 11:18:52;;;;;;;1.05;0.60;;;20.80;43.60;;;;;;6135331;29;20122;-58
2022/12/15 11:22:00;;;;;;;0.60;0.60;;;20.80;44.10;;;;;;6132479;29;20404;-58
2022/12/15 11:25:11;;;;;;;1.38;0.65;;;20.80;43.50;;;;;;6131179;29;20048;-58
2022/12/15 11:28:17;;;;;;;0.90;0.60;;;20.80;43.50;;;;;;6128258;29;20071;-58
2022/12/15 11:31:25;;;;;;;0.95;0.70;;;20.70;43.70;;;;;;6127328;29;20079;-58
2022/12/15 11:34:36;;;;;;;1.10;0.63;;;20.70;43.10;;;;;;6130562;29;20048;-58
2022/12/15 11:37:40;;;;;;;1.00;0.65;;;20.60;43.00;;;;;;6144644;29;20606;-58
2022/12/15 11:40:43;;;;;;;0.80;0.50;;;;;;;;;;6130689;29;20044;-58
2022/12/15 11:44:02;;;;;;;1.00;0.82;;;20.60;43.20;;;;;;6136049;29;20048;-57
2022/12/15 11:47:16;;;;;;;3.20;0.88;;;20.70;43.60;;;;;;6131264;29;20143;-60
2022/12/15 11:50:29;;;;;;;0.75;0.50;;;20.70;43.90;;;;;;6125448;29;20095;-61
2022/12/15 11:53:46;;;;;;;0.82;0.70;;;20.70;43.60;;;;;;6125574;29;20085;-60
2022/12/15 11:56:58;;;;;;;1.20;0.50;;;20.60;43.20;;;;;;6128283;29;20054;-61
2022/12/15 12:00:18;;;;;;;0.77;0.65;;;20.60;43.30;;;;;;6128908;29;20468;-62
2022/12/15 12:03:31;;;;;;;0.85;0.57;;;20.70;43.20;;;;;;6129783;29;20048;-62
2022/12/15 12:06:37;;;;;;;0.93;0.60;;;20.70;43.00;;;;;;6129078;29;20052;-63
2022/12/15 12:09:46;;;;;;;0.75;0.60;;;20.70;42.90;;;;;;6129087;29;20471;-59
2022/12/15 12:12:56;;;;;;;0.60;0.52;;;20.80;42.70;;;;;;6129575;29;20047;-59
2022/12/15 12:16:09;;;;;;;0.82;0.43;;;20.70;43.00;;;;;;6129064;29;20052;-58
2022/12/15 12:19:15;;;;;;;1.17;0.70;;;20.80;42.90;;;;;;6129048;29;20048;-60
2022/12/15 12:22:22;;;;;;;0.70;0.52;;;20.80;42.80;;;;;;6127809;29;20377;-60
2022/12/15 12:25:25;;;;;;;0.40;0.40;;;21.00;42.90;;;;;;6126833;29;20491;-58
2022/12/15 12:28:31;;;;;;;0.98;0.60;;;20.90;42.50;;;;;;6141471;29;20052;-60
2022/12/15 12:31:45;;;;;;;0.65;0.63;;;21.00;42.30;;;;;;6130625;29;20514;-60
2022/12/15 12:35:01;;;;;;;0.75;0.40;;;21.00;42.30;;;;;;6135463;29;20091;-58
2022/12/15 12:38:28;;;;;;;0.93;0.60;;;21.10;43.00;;;;;;6117973;29;20111;-58
2022/12/15 12:41:39;;;;;;;0.60;0.50;;;21.00;43.00;;;;;;6131392;29;20040;-63
2022/12/15 12:44:41;;;;;;;1.10;0.70;;;;;;;;;;6133791;29;20043;-61
2022/12/15 12:47:48;;;;;;;0.60;0.50;;;21.10;42.90;;;;;;6135169;28;20044;-60
2022/12/15 12:50:51;;;;;;;0.70;0.60;;;;;;;;;;6146300;28;20059;-59
2022/12/15 12:53:54;;;;;;;1.15;0.63;;;21.00;42.60;;;;;;6485991;23;20145;-56
2022/12/15 12:56:57;;;;;;;0.80;0.50;;;;;;;;;;6195708;23;20066;-55
2022/12/15 13:00:02;;;;;;;1.00;0.88;;;21.10;42.70;;;;;;6152635;28;20443;-59
2022/12/15 13:03:20;;;;;;;0.90;0.60;;;21.10;42.70;;;;;;6199433;23;20067;-58
2022/12/15 13:06:48;;;;;;;0.75;0.40;;;21.10;39.20;;;;;;6137040;29;20055;-59
2022/12/15 13:10:01;;;;;;;0.60;0.50;;;21.00;41.90;;;;;;6264440;23;20070;-60
2022/12/15 13:13:34;;;;;;;1.55;0.45;;;21.10;41.80;;;;;;6155869;28;20475;-57
2022/12/15 13:16:36;;;;;;;0.50;0.50;;;;;;;;;;6173458;28;20443;-57
2022/12/15 13:20:10;;;;;;;0.52;0.43;;;21.10;41.60;;;;;;6152668;28;20051;-58
2022/12/15 13:23:38;;;;;;;0.80;0.60;;;21.20;41.70;;;;;;6151966;29;20071;-59
2022/12/15 13:26:44;;;;;;;0.52;0.40;;;21.20;41.70;;;;;;6175731;28;20062;-58
2022/12/15 13:29:55;;;;;;;0.73;0.60;;;21.10;41.20;;;;;;6207999;23;20055;-59
2022/12/15 13:57:44;;;;;;;0.88;0.65;;;21.10;40.90;;;;;;6196781;23;20044;-58
2022/12/15 14:00:51;;;;;;;1.02;0.75;;;21.00;40.60;;;;;;6410733;24;20052;-57
2022/12/15 14:03:57;;;;;;;0.90;0.73;;;21.00;40.40;;;;;;6618486;23;20048;-56
2022/12/15 14:07:01;;;;;;;1.25;0.60;;;21.00;40.70;;;;;;6131496;29;20088;-56
2022/12/15 14:13:35;;;;;;;0.63;0.52;;;21.10;41.00;;;;;;6826957;23;20040;-59
2022/12/15 14:16:38;;;;;;;1.00;0.70;;;21.10;40.80;;;;;;6399505;23;20047;-59
2022/12/15 14:19:41;;;;;;;0.98;0.70;;;21.00;39.40;;;;;;6130025;29;20028;-58
2022/12/15 14:22:42;;;;;;;0.77;0.57;;;;;;;;;;6096469;29;20048;-59
2022/12/15 14:29:01;;;;;;;1.17;0.55;;;20.90;40.80;;;;;;6084460;29;20049;-58
2022/12/15 14:32:04;;;;;;;1.00;0.70;;;21.20;40.90;;;;;;6269928;23;20365;-58
2022/12/15 14:35:12;;;;;;;0.90;0.70;;;20.90;40.90;;;;;;6130736;29;20028;-58
2022/12/15 14:38:16;;;;;;;0.50;0.50;;;21.00;41.10;;;;;;6131204;29;20552;-56
2022/12/15 14:41:19;;;;;;;0.80;0.70;;;;;;;;;;6208512;23;20048;31
2022/12/15 14:44:28;;;;;;;0.80;0.55;;;20.90;40.30;;;;;;6379941;23;20036;-57
2022/12/15 14:47:52;;;;;;;0.65;0.65;;;20.80;40.80;;;;;;6099530;29;20076;-56
2022/12/15 14:51:14;;;;;;;0.77;0.50;;;;;;;;;;6094214;29;20067;-57
2022/12/15 14:54:29;;;;;;;0.80;0.70;;;20.80;40.20;;;;;;6128960;29;20020;-58
2022/12/15 14:57:40;;;;;;;0.90;0.60;;;20.70;40.00;;;;;;6129559;29;20048;-56
2022/12/15 15:00:50;;;;;;;2.15;0.70;;;20.90;40.10;;;;;;6115224;29;20035;-57
2022/12/15 15:03:58;;;;;;;0.60;0.50;;;20.80;40.10;;;;;;6113152;23;20048;-56
2022/12/15 15:07:01;;;;;;;0.82;0.70;;;20.60;40.10;;;;;;6128907;29;20049;-57
2022/12/15 15:10:21;;;;;;;0.73;0.60;;;20.70;40.30;;;;;;6118913;29;20052;-57
2022/12/15 15:13:26;;;;;;;0.90;0.63;;;20.60;40.60;;;;;;6097242;29;20044;-54
2022/12/15 15:16:28;;;;;;;1.42;0.70;;;20.70;40.90;;;;;;6112169;29;20040;-57
2022/12/15 15:19:31;;;;;;;0.90;0.70;;;20.70;39.40;;;;;;6111280;29;20041;-58
2022/12/15 15:22:44;;;;;;;0.60;0.50;;;20.70;36.20;;;;;;6107472;29;20100;-58
2022/12/15 15:25:51;;;;;;;0.90;0.65;;;20.70;40.70;;;;;;6104064;29;20119;-59
2022/12/15 15:28:53;;;;;;;0.70;0.60;;;20.70;40.70;;;;;;6101032;29;20126;-59
2022/12/15 15:32:05;;;;;;;1.15;0.85;;;20.70;40.10;;;;;;6109727;29;20048;-58
2022/12/15 15:35:07;;;;;;;0.65;0.60;;;;;;;;;;6115089;29;20048;-59
2022/12/15 15:38:19;;;;;;;0.60;0.50;;;20.60;40.70;;;;;;6110842;29;20052;-58
2022/12/15 15:41:25;;;;;;;0.80;0.57;;;20.80;40.90;;;;;;6114626;29;20504;-58
2022/12/15 15:44:27;;;;;;;0.85;0.60;;;;;;;;;;6107604;29;20491;-58
2022/12/15 15:47:29;;;;;;;0.65;0.50;;;20.60;40.50;;;;;;6115454;29;20421;-56
2022/12/15 15:50:31;;;;;;;0.70;0.55;;;;;;;;;;6115386;29;20044;-57
2022/12/15 15:53:35;;;;;;;0.60;0.50;;;20.70;40.20;;;;;;6115907;29;20048;-58
2022/12/15 15:56:37;;;;;;;0.40;0.35;;;;;;;;;;6107037;29;20028;-58
2022/12/15 15:59:41;;;;;;;0.73;0.60;;;;;;;;;;6133421;29;20050;-57
2022/12/15 16:06:16;;;;;;;;;;;20.70;40.70;;;;;;6143179;23;20648;-58
2022/12/15 16:17:02;;;;;;;0.65;0.60;;;20.60;21.70;;;;;;6446992;27;20034;-67
2022/12/15 16:20:04;;;;;;;0.80;0.60;;;20.10;22.50;;;;;;6446786;27;20053;-66
2022/12/15 16:23:12;;;;;;;1.20;0.68;;;20.00;22.70;;;;;;6446938;27;20393;-66
2022/12/15 16:26:19;;;;;;;0.88;0.70;;;19.30;22.70;;;;;;6445949;27;20061;-67
2022/12/15 16:29:21;;;;;;;0.60;0.60;;;19.20;22.80;;;;;;6447080;27;20037;-66
2022/12/15 16:32:23;;;;;;;;;;;19.60;23.20;;;;;;6447000;27;20485;-64
2022/12/15 16:35:25;;;;;;;0.65;0.52;;;19.80;23.60;;;;;;6426726;27;19998;-63
2022/12/15 16:38:29;;;;;;;0.90;0.80;;;19.40;23.40;;;;;;6420009;27;20374;-63
2022/12/15 16:41:32;;;;;;;0.68;0.50;;;19.40;23.40;;;;;;6419833;27;20487;-65
2022/12/15 16:44:33;;;;;;;0.73;0.50;;;19.50;23.60;;;;;;6420507;27;20043;-62
2022/12/15 16:47:35;;;;;;;0.50;0.50;;;19.30;23.70;;;;;;6419965;27;20047;-65
2022/12/15 16:50:39;;;;;;;0.60;0.52;;;19.10;23.70;;;;;;6419291;27;20070;-64
2022/12/15 16:53:42;;;;;;;0.65;0.65;;;19.20;23.80;;;;;;6419159;27;20034;-64
2022/12/15 16:56:43;;;;;;;0.70;0.70;;;19.30;24.00;;;;;;6419732;27;20035;-64
2022/12/15 16:59:45;;;;;;;0.70;0.60;;;19.20;24.10;;;;;;6419919;27;20514;-65
2022/12/15 17:02:48;;;;;;;0.80;0.63;;;19.10;24.10;;;;;;6418997;27;20077;-67
2022/12/15 17:05:52;;;;;;;1.05;0.70;;;19.10;24.20;;;;;;6400637;27;20030;-67
2022/12/15 17:08:55;;;;;;;0.80;0.70;;;19.20;24.40;;;;;;6418947;27;20370;-67
2022/12/15 17:11:59;;;;;;;0.70;0.60;;;18.70;24.30;;;;;;6418666;27;20042;-65
2022/12/15 17:15:01;;;;;;;0.73;0.60;;;19.00;23.70;;;;;;6382999;27;20073;-65
2022/12/15 17:18:04;;;;;;;0.50;0.47;;;19.20;24.80;;;;;;6418949;27;20039;-67
2022/12/15 17:21:12;;;;;;;0.70;0.50;;;19.40;25.00;;;;;;6417645;27;20066;-65
2022/12/15 17:24:16;;;;;;;1.00;0.73;;;19.20;25.10;;;;;;6402036;27;20031;-64
2022/12/15 17:36:38;;;;;;;0.80;0.70;;;19.90;49.90;;;;;;6430517;27;20043;-51
2022/12/15 17:39:43;;;;;;;0.80;0.60;;;19.70;49.30;;;;;;6440145;27;20099;-51
2022/12/15 17:42:45;;;;;;;0.80;0.60;;;19.80;49.80;;;;;;6419179;27;20039;-44
2022/12/15 17:45:49;;;;;;;0.90;0.60;;;20.20;49.40;;;;;;6422636;27;20039;-48
2022/12/15 17:48:50;;;;;;;0.60;0.60;;;20.30;50.30;;;;;;6429724;27;20045;-51
2022/12/15 17:51:53;;;;;;;0.80;0.65;;;20.20;29.90;;;;;;6446307;27;20461;-51
2022/12/15 17:54:55;;;;;;;1.05;0.70;;;20.20;50.20;;;;;;6446422;27;20038;-51
2022/12/15 17:57:57;;;;;;;0.68;0.60;;;19.90;30.10;;;;;;6428087;27;20046;-51
2022/12/15 18:00:59;;;;;;;0.60;0.47;;;20.20;49.70;;;;;;6433096;27;20455;-49
2022/12/15 18:04:00;;;;;;;0.40;0.40;;;20.40;50.30;;;;;;6424479;27;20042;-50
2022/12/15 18:07:03;;;;;;;0.52;0.52;;;20.30;50.10;;;;;;6425152;27;20035;-51
2022/12/15 18:10:06;;;;;;;0.40;0.40;;;19.90;50.20;;;;;;6424604;27;20042;-49
2022/12/15 18:13:15;;;;;;;0.60;0.50;;;20.30;51.00;;;;;;6423362;27;20488;-47
2022/12/15 18:16:17;;;;;;;0.60;0.40;;;20.30;50.90;;;;;;6406469;27;20062;-48
2022/12/15 18:19:19;;;;;;;0.82;0.50;;;20.10;51.10;;;;;;6424545;27;20034;-48
2022/12/15 18:22:22;;;;;;;0.50;0.50;;;20.30;51.30;;;;;;6425193;27;20043;-49
2022/12/15 18:25:26;;;;;;;0.77;0.50;;;20.10;51.30;;;;;;6407088;27;20039;-48
2022/12/15 18:28:29;;;;;;;0.70;0.52;;;20.30;51.90;;;;;;6407031;27;20035;-49
2022/12/15 18:31:30;;;;;;;0.88;0.60;;;20.20;51.80;;;;;;6406908;27;20436;-49
2022/12/15 18:34:32;;;;;;;;;;;20.20;31.60;;;;;;6424455;27;20042;-50
2022/12/15 18:37:34;;;;;;;0.63;0.60;;;20.00;51.80;;;;;;6423048;27;19983;-50
2022/12/15 18:40:36;;;;;;;0.65;0.50;;;19.90;52.10;;;;;;6420150;27;20379;-51
2022/12/15 18:43:40;;;;;;;0.57;0.43;;;19.90;52.40;;;;;;6403957;27;20153;-49
2022/12/15 18:46:42;;;;;;;0.60;0.60;;;20.10;52.40;;;;;;6403891;27;20039;-47
2022/12/15 18:49:49;;;;;;;0.55;0.50;;;20.10;52.60;;;;;;6404130;27;20401;-46
2022/12/15 18:52:59;;;;;;;0.50;0.40;;;20.00;52.50;;;;;;6404136;27;20418;-48
2022/12/15 18:56:02;;;;;;;0.60;0.50;;;19.80;52.50;;;;;;6385358;27;20038;-48
2022/12/15 18:59:04;;;;;;;0.40;0.40;;;19.60;52.50;;;;;;6403662;27;20043;-47
2022/12/15 19:02:07;;;;;;;0.68;0.68;;;20.20;54.00;;;;;;6404785;27;20546;-46
2022/12/15 19:05:26;;;;;;;0.70;0.50;;;20.10;53.20;;;;;;6404290;27;20042;-47
2022/12/15 19:08:30;;;;;;;0.73;0.40;;;20.00;52.90;;;;;;6404951;27;20038;-49
2022/12/15 19:11:33;;;;;;;0.50;0.40;;;19.60;53.70;;;;;;6386654;27;20542;-46
2022/12/15 19:14:42;;;;;;;0.70;0.55;;;19.80;53.10;;;;;;6404177;27;20054;-48
2022/12/15 19:27:46;;;;;;;0.90;0.80;;;19.70;53.20;;;;;;6387456;27;20046;-48
2022/12/15 19:30:48;;;;;;;;;;;20.00;33.20;;;;;;6404614;27;20031;-46
2022/12/15 19:33:49;;;;;;;0.60;0.40;;;19.70;53.10;;;;;;6403544;27;20435;-50
2022/12/15 19:36:51;;;;;;;;;;;20.10;33.30;;;;;;6404570;27;20083;-48
2022/12/15 19:39:54;;;;;;;0.55;0.47;;;19.90;53.40;;;;;;6403033;27;19923;-48
2022/12/15 19:42:57;;;;;;;0.47;0.40;;;;;;;;;;6404099;27;20034;-48
2022/12/15 19:45:59;;;;;;;0.50;0.50;;;19.50;53.30;;;;;;6385814;27;20536;-49
2022/12/15 19:49:00;;;;;;;0.57;0.47;;;19.90;53.50;;;;;;6404606;27;20122;-48
2022/12/15 19:52:02;;;;;;;0.57;0.40;;;19.60;53.50;;;;;;6404442;27;20043;-48
2022/12/15 19:55:05;;;;;;;0.75;0.57;;;19.80;33.10;;;;;;6404224;27;20042;-48
2022/12/15 19:58:20;;;;;;;0.30;0.30;;;19.90;54.00;;;;;;6404040;27;20099;-50
2022/12/15 20:01:28;;;;;;;0.65;0.50;;;20.00;53.90;;;;;;6373992;27;20038;-49
2022/12/15 20:04:31;;;;;;;0.52;0.40;;;19.70;53.80;;;;;;6405095;27;20039;-48
2022/12/15 20:07:32;;;;;;;0.75;0.50;;;19.60;53.70;;;;;;6403360;27;20039;-45
2022/12/15 20:10:34;;;;;;;;;;;19.90;34.10;;;;;;6404604;27;20145;-50
2022/12/15 20:13:36;;;;;;;0.60;0.50;;;19.90;40.10;;;;;;6402045;27;19978;-46
2022/12/15 20:16:38;;;;;;;0.55;0.50;;;19.80;36.00;;;;;;6400949;27;20118;-46
2022/12/15 20:19:40;;;;;;;0.40;0.40;;;19.70;33.60;;;;;;6382820;27;20050;-46
2022/12/15 20:22:43;;;;;;;0.50;0.40;;;19.70;54.20;;;;;;6382673;27;20050;-46
2022/12/15 20:25:46;;;;;;;0.63;0.45;;;19.60;38.90;;;;;;6400652;27;20039;-46
2022/12/15 20:28:47;;;;;;;0.70;0.50;;;19.70;54.30;;;;;;6382503;27;20508;-50
2022/12/15 20:31:49;;;;;;;;;;;19.80;34.50;;;;;;6401079;27;20078;-48
2022/12/15 20:34:50;;;;;;;0.70;0.70;;;19.50;54.20;;;;;;6399749;27;19925;-47
2022/12/15 20:37:53;;;;;;;0.88;0.63;;;19.40;54.00;;;;;;6400397;27;20063;-49
2022/12/15 20:40:55;;;;;;;0.60;0.40;;;19.70;54.30;;;;;;6400717;27;20103;-47